sensor_id;sensor_type;location;lat;lon;timestamp;pressure;altitude;pressure_sealevel;temperature;humidity
65897;BME280;52677;50.898;10.854;2022-12-07T00:01:50;98394.41;;;-0.37;100.00
65897;BME280;52677;50.898;10.854;2022-12-07T00:03:52;98399.38;;;-0.39;100.00
65897;BME280;52677;50.898;10.854;2022-12-07T00:05:57;98391.22;;;-0.39;100.00
65897;BME280;52677;50.898;10.854;2022-12-07T00:07:57;98391.81;;;-0.42;100.00
65897;BME280;52677;50.898;10.854;2022-12-07T00:09:58;98396.44;;;-0.43;100.00
65897;BME280;52677;50.898;10.854;2022-12-07T00:11:58;98397.88;;;-0.45;100.00
65897;BME280;52677;50.898;10.854;2022-12-07T00:14:02;98389.72;;;-0.45;100.00
65897;BME280;52677;50.898;10.854;2022-12-07T00:16:06;98389.91;;;-0.42;100.00
65897;BME280;52677;50.898;10.854;2022-12-07T00:18:07;98382.63;;;-0.33;100.00
65897;BME280;52677;50.898;10.854;2022-12-07T00:20:07;98373.53;;;-0.28;100.00
65897;BME280;52677;50.898;10.854;2022-12-07T00:22:08;98388.72;;;-0.27;100.00
65897;BME280;52677;50.898;10.854;2022-12-07T00:24:09;98376.75;;;-0.26;100.00
65897;BME280;52677;50.898;10.854;2022-12-07T00:26:13;98374.03;;;-0.26;100.00
65897;BME280;52677;50.898;10.854;2022-12-07T00:28:14;98371.81;;;-0.24;100.00
65897;BME280;52677;50.898;10.854;2022-12-07T00:30:14;98357.09;;;-0.23;100.00
65897;BME280;52677;50.898;10.854;2022-12-07T00:32:14;98353.44;;;-0.18;100.00
65897;BME280;52677;50.898;10.854;2022-12-07T00:34:18;98359.81;;;-0.23;100.00
65897;BME280;52677;50.898;10.854;2022-12-07T00:36:20;98354.38;;;-0.23;100.00
65897;BME280;52677;50.898;10.854;2022-12-07T00:38:21;98351.66;;;-0.23;100.00
65897;BME280;52677;50.898;10.854;2022-12-07T00:40:22;98353.28;;;-0.22;100.00
65897;BME280;52677;50.898;10.854;2022-12-07T00:42:22;98349.91;;;-0.19;100.00
65897;BME280;52677;50.898;10.854;2022-12-07T00:44:22;98345.13;;;-0.22;100.00
65897;BME280;52677;50.898;10.854;2022-12-07T00:46:23;98356.97;;;-0.18;100.00
65897;BME280;52677;50.898;10.854;2022-12-07T00:48:24;98345.44;;;-0.23;100.00
65897;BME280;52677;50.898;10.854;2022-12-07T00:50:24;98346.19;;;-0.32;100.00
65897;BME280;52677;50.898;10.854;2022-12-07T00:52:24;98347.34;;;-0.24;100.00
65897;BME280;52677;50.898;10.854;2022-12-07T00:54:25;98349.31;;;-0.16;100.00
65897;BME280;52677;50.898;10.854;2022-12-07T00:56:27;98353.44;;;-0.18;100.00
65897;BME280;52677;50.898;10.854;2022-12-07T00:58:27;98354.06;;;-0.21;100.00
65897;BME280;52677;50.898;10.854;2022-12-07T01:00:28;98340.28;;;-0.25;100.00
65897;BME280;52677;50.898;10.854;2022-12-07T01:02:28;98341.22;;;-0.30;100.00
65897;BME280;52677;50.898;10.854;2022-12-07T01:04:28;98334.78;;;-0.34;100.00
65897;BME280;52677;50.898;10.854;2022-12-07T01:06:30;98336.22;;;-0.36;100.00
65897;BME280;52677;50.898;10.854;2022-12-07T01:08:31;98333.81;;;-0.38;100.00
65897;BME280;52677;50.898;10.854;2022-12-07T01:10:32;98336.53;;;-0.38;100.00
65897;BME280;52677;50.898;10.854;2022-12-07T01:12:32;98335.72;;;-0.38;100.00
65897;BME280;52677;50.898;10.854;2022-12-07T01:14:32;98329.97;;;-0.37;100.00
65897;BME280;52677;50.898;10.854;2022-12-07T01:16:33;98319.41;;;-0.38;100.00
65897;BME280;52677;50.898;10.854;2022-12-07T01:18:35;98322.47;;;-0.40;100.00
65897;BME280;52677;50.898;10.854;2022-12-07T01:20:36;98318.94;;;-0.40;100.00
65897;BME280;52677;50.898;10.854;2022-12-07T01:22:38;98317.81;;;-0.39;100.00
65897;BME280;52677;50.898;10.854;2022-12-07T01:24:39;98321.34;;;-0.39;100.00
65897;BME280;52677;50.898;10.854;2022-12-07T01:26:39;98317.19;;;-0.36;100.00
65897;BME280;52677;50.898;10.854;2022-12-07T01:28:40;98315.75;;;-0.34;100.00
65897;BME280;52677;50.898;10.854;2022-12-07T01:30:40;98314.72;;;-0.24;100.00
65897;BME280;52677;50.898;10.854;2022-12-07T01:32:40;98301.41;;;-0.25;100.00
65897;BME280;52677;50.898;10.854;2022-12-07T01:34:41;98298.75;;;-0.17;100.00
65897;BME280;52677;50.898;10.854;2022-12-07T01:36:41;98308.22;;;-0.14;100.00
65897;BME280;52677;50.898;10.854;2022-12-07T01:38:42;98304.53;;;-0.10;100.00
65897;BME280;52677;50.898;10.854;2022-12-07T01:40:43;98299.63;;;-0.08;100.00
65897;BME280;52677;50.898;10.854;2022-12-07T01:42:43;98308.09;;;-0.01;100.00
65897;BME280;52677;50.898;10.854;2022-12-07T01:47:18;98314.53;;;0.04;100.00
65897;BME280;52677;50.898;10.854;2022-12-07T01:49:26;98315.50;;;0.08;100.00
65897;BME280;52677;50.898;10.854;2022-12-07T01:51:28;98308.34;;;0.12;100.00
65897;BME280;52677;50.898;10.854;2022-12-07T01:53:30;98305.41;;;0.08;100.00
65897;BME280;52677;50.898;10.854;2022-12-07T01:55:32;98298.22;;;0.04;100.00
65897;BME280;52677;50.898;10.854;2022-12-07T01:57:35;98293.56;;;0.04;100.00
65897;BME280;52677;50.898;10.854;2022-12-07T01:59:37;98298.25;;;0.12;100.00
65897;BME280;52677;50.898;10.854;2022-12-07T02:01:37;98293.47;;;0.18;100.00
65897;BME280;52677;50.898;10.854;2022-12-07T02:03:40;98293.66;;;0.21;100.00
65897;BME280;52677;50.898;10.854;2022-12-07T02:05:41;98298.13;;;0.17;100.00
65897;BME280;52677;50.898;10.854;2022-12-07T02:07:44;98286.91;;;0.19;100.00
65897;BME280;52677;50.898;10.854;2022-12-07T02:09:47;98283.88;;;0.20;100.00
65897;BME280;52677;50.898;10.854;2022-12-07T02:11:47;98283.41;;;0.18;100.00
65897;BME280;52677;50.898;10.854;2022-12-07T02:13:48;98291.41;;;0.23;100.00
65897;BME280;52677;50.898;10.854;2022-12-07T02:18:30;98283.09;;;0.28;100.00
65897;BME280;52677;50.898;10.854;2022-12-07T02:20:40;98279.09;;;0.26;100.00
65897;BME280;52677;50.898;10.854;2022-12-07T02:27:46;98275.72;;;0.20;100.00
65897;BME280;52677;50.898;10.854;2022-12-07T02:30:01;98285.66;;;0.25;100.00
65897;BME280;52677;50.898;10.854;2022-12-07T02:32:13;98285.00;;;0.19;100.00
65897;BME280;52677;50.898;10.854;2022-12-07T02:34:23;98280.34;;;0.20;100.00
65897;BME280;52677;50.898;10.854;2022-12-07T02:36:28;98282.28;;;0.19;100.00
65897;BME280;52677;50.898;10.854;2022-12-07T02:41:02;98279.09;;;0.26;100.00
65897;BME280;52677;50.898;10.854;2022-12-07T02:43:30;98274.31;;;0.32;100.00
65897;BME280;52677;50.898;10.854;2022-12-07T02:45:34;98270.78;;;0.31;100.00
65897;BME280;52677;50.898;10.854;2022-12-07T02:47:36;98271.78;;;0.35;100.00
65897;BME280;52677;50.898;10.854;2022-12-07T02:49:38;98275.78;;;0.38;100.00
65897;BME280;52677;50.898;10.854;2022-12-07T02:51:42;98278.00;;;0.36;100.00
65897;BME280;52677;50.898;10.854;2022-12-07T02:53:43;98275.63;;;0.34;100.00
65897;BME280;52677;50.898;10.854;2022-12-07T02:55:44;98266.47;;;0.39;100.00
65897;BME280;52677;50.898;10.854;2022-12-07T02:57:58;98258.34;;;0.47;100.00
65897;BME280;52677;50.898;10.854;2022-12-07T03:06:31;98267.63;;;0.55;100.00
65897;BME280;52677;50.898;10.854;2022-12-07T03:08:46;98266.69;;;0.60;100.00
65897;BME280;52677;50.898;10.854;2022-12-07T03:11:41;98260.28;;;0.55;100.00
65897;BME280;52677;50.898;10.854;2022-12-07T03:13:28;98263.97;;;0.51;100.00
65897;BME280;52677;50.898;10.854;2022-12-07T03:18:00;98263.16;;;0.50;100.00
65897;BME280;52677;50.898;10.854;2022-12-07T03:20:04;98256.59;;;0.51;100.00
65897;BME280;52677;50.898;10.854;2022-12-07T03:22:09;98249.22;;;0.52;100.00
65897;BME280;52677;50.898;10.854;2022-12-07T03:24:29;98247.63;;;0.51;100.00
65897;BME280;52677;50.898;10.854;2022-12-07T03:26:34;98236.75;;;0.51;100.00
65897;BME280;52677;50.898;10.854;2022-12-07T03:28:39;98244.75;;;0.56;100.00
65897;BME280;52677;50.898;10.854;2022-12-07T03:30:53;98233.53;;;0.57;100.00
65897;BME280;52677;50.898;10.854;2022-12-07T03:33:20;98236.44;;;0.61;100.00
65897;BME280;52677;50.898;10.854;2022-12-07T03:35:26;98234.50;;;0.62;100.00
65897;BME280;52677;50.898;10.854;2022-12-07T03:37:38;98224.75;;;0.61;100.00
65897;BME280;52677;50.898;10.854;2022-12-07T03:39:49;98219.91;;;0.57;100.00
65897;BME280;52677;50.898;10.854;2022-12-07T03:41:52;98216.56;;;0.61;100.00
65897;BME280;52677;50.898;10.854;2022-12-07T03:43:54;98221.53;;;0.59;100.00
65897;BME280;52677;50.898;10.854;2022-12-07T03:46:06;98220.41;;;0.60;100.00
65897;BME280;52677;50.898;10.854;2022-12-07T03:48:20;98225.69;;;0.65;100.00
65897;BME280;52677;50.898;10.854;2022-12-07T03:50:33;98220.25;;;0.65;100.00
65897;BME280;52677;50.898;10.854;2022-12-07T03:52:56;98233.25;;;0.76;100.00
65897;BME280;52677;50.898;10.854;2022-12-07T03:57:49;98234.66;;;0.74;100.00
65897;BME280;52677;50.898;10.854;2022-12-07T03:59:51;98234.38;;;0.75;100.00
65897;BME280;52677;50.898;10.854;2022-12-07T04:01:56;98230.53;;;0.68;100.00
65897;BME280;52677;50.898;10.854;2022-12-07T04:03:57;98237.09;;;0.67;100.00
65897;BME280;52677;50.898;10.854;2022-12-07T04:05:58;98232.72;;;0.66;100.00
65897;BME280;52677;50.898;10.854;2022-12-07T04:07:59;98232.59;;;0.71;100.00
65897;BME280;52677;50.898;10.854;2022-12-07T04:09:59;98234.19;;;0.72;100.00
65897;BME280;52677;50.898;10.854;2022-12-07T04:12:00;98226.34;;;0.70;100.00
65897;BME280;52677;50.898;10.854;2022-12-07T04:14:00;98231.16;;;0.73;100.00
65897;BME280;52677;50.898;10.854;2022-12-07T04:16:19;98231.66;;;0.75;100.00
65897;BME280;52677;50.898;10.854;2022-12-07T04:18:19;98228.94;;;0.75;100.00
65897;BME280;52677;50.898;10.854;2022-12-07T04:20:20;98225.41;;;0.75;100.00
65897;BME280;52677;50.898;10.854;2022-12-07T04:22:21;98232.28;;;0.72;100.00
65897;BME280;52677;50.898;10.854;2022-12-07T04:24:21;98234.19;;;0.72;100.00
65897;BME280;52677;50.898;10.854;2022-12-07T04:26:22;98237.88;;;0.76;100.00
65897;BME280;52677;50.898;10.854;2022-12-07T04:28:22;98233.88;;;0.73;100.00
65897;BME280;52677;50.898;10.854;2022-12-07T04:30:22;98236.59;;;0.73;100.00
65897;BME280;52677;50.898;10.854;2022-12-07T04:32:23;98228.94;;;0.75;100.00
65897;BME280;52677;50.898;10.854;2022-12-07T04:34:23;98224.41;;;0.71;100.00
65897;BME280;52677;50.898;10.854;2022-12-07T04:36:24;98233.72;;;0.87;100.00
65897;BME280;52677;50.898;10.854;2022-12-07T04:38:24;98230.66;;;0.80;100.00
65897;BME280;52677;50.898;10.854;2022-12-07T04:40:24;98227.00;;;0.84;100.00
65897;BME280;52677;50.898;10.854;2022-12-07T04:42:25;98223.16;;;0.86;100.00
65897;BME280;52677;50.898;10.854;2022-12-07T04:44:26;98222.81;;;0.87;100.00
65897;BME280;52677;50.898;10.854;2022-12-07T04:46:27;98223.63;;;0.88;100.00
65897;BME280;52677;50.898;10.854;2022-12-07T04:48:28;98226.34;;;0.88;100.00
65897;BME280;52677;50.898;10.854;2022-12-07T04:50:28;98226.34;;;0.88;100.00
65897;BME280;52677;50.898;10.854;2022-12-07T04:52:29;98222.19;;;0.90;100.00
65897;BME280;52677;50.898;10.854;2022-12-07T04:54:29;98219.97;;;0.92;100.00
65897;BME280;52677;50.898;10.854;2022-12-07T04:56:29;98215.94;;;0.90;100.00
65897;BME280;52677;50.898;10.854;2022-12-07T04:58:30;98221.69;;;0.88;100.00
65897;BME280;52677;50.898;10.854;2022-12-07T05:00:30;98216.09;;;0.84;100.00
65897;BME280;52677;50.898;10.854;2022-12-07T05:02:30;98213.72;;;0.83;100.00
65897;BME280;52677;50.898;10.854;2022-12-07T05:04:31;98221.38;;;0.81;100.00
65897;BME280;52677;50.898;10.854;2022-12-07T05:06:31;98218.19;;;0.79;100.00
65897;BME280;52677;50.898;10.854;2022-12-07T05:08:33;98216.25;;;0.79;100.00
65897;BME280;52677;50.898;10.854;2022-12-07T05:10:33;98216.59;;;0.78;100.00
65897;BME280;52677;50.898;10.854;2022-12-07T05:12:34;98215.94;;;0.81;100.00
65897;BME280;52677;50.898;10.854;2022-12-07T05:14:34;98215.78;;;0.77;100.00
65897;BME280;52677;50.898;10.854;2022-12-07T05:16:34;98220.25;;;0.82;100.00
65897;BME280;52677;50.898;10.854;2022-12-07T05:18:35;98222.03;;;0.87;100.00
65897;BME280;52677;50.898;10.854;2022-12-07T05:20:35;98216.25;;;0.97;100.00
65897;BME280;52677;50.898;10.854;2022-12-07T05:22:36;98219.94;;;1.01;100.00
65897;BME280;52677;50.898;10.854;2022-12-07T05:24:36;98211.13;;;1.04;100.00
65897;BME280;52677;50.898;10.854;2022-12-07T05:26:36;98225.22;;;1.15;100.00
65897;BME280;52677;50.898;10.854;2022-12-07T05:28:37;98213.19;;;1.33;100.00
65897;BME280;52677;50.898;10.854;2022-12-07T05:30:37;98217.66;;;1.29;100.00
65897;BME280;52677;50.898;10.854;2022-12-07T05:32:38;98223.91;;;1.29;100.00
65897;BME280;52677;50.898;10.854;2022-12-07T05:34:38;98216.88;;;1.28;100.00
65897;BME280;52677;50.898;10.854;2022-12-07T05:36:38;98227.63;;;1.25;100.00
65897;BME280;52677;50.898;10.854;2022-12-07T05:38:39;98218.31;;;1.26;100.00
65897;BME280;52677;50.898;10.854;2022-12-07T05:40:39;98214.47;;;1.27;100.00
65897;BME280;52677;50.898;10.854;2022-12-07T05:42:40;98215.25;;;1.27;100.00
65897;BME280;52677;50.898;10.854;2022-12-07T05:44:42;98219.59;;;1.28;100.00
65897;BME280;52677;50.898;10.854;2022-12-07T05:46:43;98227.28;;;1.26;100.00
65897;BME280;52677;50.898;10.854;2022-12-07T05:48:44;98224.38;;;1.31;100.00
65897;BME280;52677;50.898;10.854;2022-12-07T05:50:47;98223.59;;;1.31;100.00
65897;BME280;52677;50.898;10.854;2022-12-07T05:52:48;98236.28;;;1.27;100.00
65897;BME280;52677;50.898;10.854;2022-12-07T05:54:48;98222.66;;;1.27;100.00
65897;BME280;52677;50.898;10.854;2022-12-07T05:56:48;98232.88;;;1.30;100.00
65897;BME280;52677;50.898;10.854;2022-12-07T05:58:49;98231.94;;;1.34;100.00
65897;BME280;52677;50.898;10.854;2022-12-07T06:01:07;98230.47;;;1.37;100.00
65897;BME280;52677;50.898;10.854;2022-12-07T06:03:08;98233.34;;;1.32;100.00
65897;BME280;52677;50.898;10.854;2022-12-07T06:05:08;98217.97;;;1.36;100.00
65897;BME280;52677;50.898;10.854;2022-12-07T06:07:10;98217.00;;;1.32;100.00
65897;BME280;52677;50.898;10.854;2022-12-07T06:09:11;98227.75;;;1.28;100.00
65897;BME280;52677;50.898;10.854;2022-12-07T06:11:12;98229.69;;;1.28;100.00
65897;BME280;52677;50.898;10.854;2022-12-07T06:13:32;98238.34;;;1.21;100.00
65897;BME280;52677;50.898;10.854;2022-12-07T06:15:35;98233.09;;;1.16;100.00
65897;BME280;52677;50.898;10.854;2022-12-07T06:17:36;98234.97;;;1.16;100.00
65897;BME280;52677;50.898;10.854;2022-12-07T06:19:36;98243.66;;;1.26;100.00
65897;BME280;52677;50.898;10.854;2022-12-07T06:21:37;98229.84;;;1.23;100.00
65897;BME280;52677;50.898;10.854;2022-12-07T06:23:37;98225.06;;;1.20;100.00
65897;BME280;52677;50.898;10.854;2022-12-07T06:25:37;98237.22;;;1.13;100.00
65897;BME280;52677;50.898;10.854;2022-12-07T06:27:38;98228.72;;;1.15;100.00
65897;BME280;52677;50.898;10.854;2022-12-07T06:29:39;98230.03;;;1.18;100.00
65897;BME280;52677;50.898;10.854;2022-12-07T06:31:39;98229.84;;;1.14;100.00
65897;BME280;52677;50.898;10.854;2022-12-07T06:33:40;98229.06;;;1.13;100.00
65897;BME280;52677;50.898;10.854;2022-12-07T06:35:41;98226.19;;;1.10;100.00
65897;BME280;52677;50.898;10.854;2022-12-07T06:37:41;98218.34;;;1.08;100.00
65897;BME280;52677;50.898;10.854;2022-12-07T06:39:42;98226.00;;;1.06;100.00
65897;BME280;52677;50.898;10.854;2022-12-07T06:41:42;98237.91;;;1.02;100.00
65897;BME280;52677;50.898;10.854;2022-12-07T06:43:42;98234.69;;;1.00;100.00
65897;BME280;52677;50.898;10.854;2022-12-07T06:45:43;98226.53;;;1.00;100.00
65897;BME280;52677;50.898;10.854;2022-12-07T06:47:43;98230.53;;;1.02;100.00
65897;BME280;52677;50.898;10.854;2022-12-07T06:49:43;98233.06;;;0.99;100.00
65897;BME280;52677;50.898;10.854;2022-12-07T06:51:44;98240.94;;;1.09;100.00
65897;BME280;52677;50.898;10.854;2022-12-07T06:53:44;98245.41;;;1.13;100.00
65897;BME280;52677;50.898;10.854;2022-12-07T06:55:44;98247.81;;;1.15;100.00
65897;BME280;52677;50.898;10.854;2022-12-07T06:57:45;98253.59;;;1.13;100.00
65897;BME280;52677;50.898;10.854;2022-12-07T06:59:45;98250.84;;;1.13;100.00
65897;BME280;52677;50.898;10.854;2022-12-07T07:01:45;98248.78;;;1.10;100.00
65897;BME280;52677;50.898;10.854;2022-12-07T07:03:46;98251.50;;;1.10;100.00
65897;BME280;52677;50.898;10.854;2022-12-07T07:05:47;98245.75;;;1.12;100.00
65897;BME280;52677;50.898;10.854;2022-12-07T07:07:51;98252.63;;;1.09;100.00
65897;BME280;52677;50.898;10.854;2022-12-07T07:09:51;98246.53;;;1.12;100.00
65897;BME280;52677;50.898;10.854;2022-12-07T07:11:51;98251.50;;;1.10;100.00
65897;BME280;52677;50.898;10.854;2022-12-07T07:13:52;98248.63;;;1.07;100.00
65897;BME280;52677;50.898;10.854;2022-12-07T07:15:53;98255.84;;;1.11;100.00
65897;BME280;52677;50.898;10.854;2022-12-07T07:17:53;98253.25;;;1.15;100.00
65897;BME280;52677;50.898;10.854;2022-12-07T07:19:54;98247.97;;;1.19;100.00
65897;BME280;52677;50.898;10.854;2022-12-07T07:21:54;98252.97;;;1.17;100.00
65897;BME280;52677;50.898;10.854;2022-12-07T07:23:54;98247.50;;;1.17;100.00
65897;BME280;52677;50.898;10.854;2022-12-07T07:25:55;98248.44;;;1.21;100.00
65897;BME280;52677;50.898;10.854;2022-12-07T07:27:55;98246.22;;;1.14;100.00
65897;BME280;52677;50.898;10.854;2022-12-07T07:29:55;98253.91;;;1.21;100.00
65897;BME280;52677;50.898;10.854;2022-12-07T07:31:56;98250.25;;;1.17;100.00
65897;BME280;52677;50.898;10.854;2022-12-07T07:33:56;98253.13;;;1.11;100.00
65897;BME280;52677;50.898;10.854;2022-12-07T07:35:56;98253.25;;;1.06;100.00
65897;BME280;52677;50.898;10.854;2022-12-07T07:37:57;98250.38;;;1.03;100.00
65897;BME280;52677;50.898;10.854;2022-12-07T07:39:57;98247.66;;;1.03;100.00
65897;BME280;52677;50.898;10.854;2022-12-07T07:41:58;98247.00;;;1.06;100.00
65897;BME280;52677;50.898;10.854;2022-12-07T07:43:58;98250.06;;;1.04;100.00
65897;BME280;52677;50.898;10.854;2022-12-07T07:45:58;98254.38;;;1.14;100.00
65897;BME280;52677;50.898;10.854;2022-12-07T07:47:59;98249.09;;;1.18;100.00
65897;BME280;52677;50.898;10.854;2022-12-07T07:49:59;98254.56;;;1.09;100.00
65897;BME280;52677;50.898;10.854;2022-12-07T07:52:00;98249.41;;;1.07;100.00
65897;BME280;52677;50.898;10.854;2022-12-07T07:54:00;98245.75;;;1.03;100.00
65897;BME280;52677;50.898;10.854;2022-12-07T07:56:00;98245.41;;;1.05;100.00
65897;BME280;52677;50.898;10.854;2022-12-07T07:58:00;98250.53;;;1.06;100.00
65897;BME280;52677;50.898;10.854;2022-12-07T08:00:20;98241.88;;;1.04;100.00
65897;BME280;52677;50.898;10.854;2022-12-07T08:02:21;98252.00;;;1.04;100.00
65897;BME280;52677;50.898;10.854;2022-12-07T08:04:22;98241.41;;;1.02;100.00
65897;BME280;52677;50.898;10.854;2022-12-07T08:06:22;98247.00;;;0.97;100.00
65897;BME280;52677;50.898;10.854;2022-12-07T08:08:22;98239.63;;;0.98;100.00
65897;BME280;52677;50.898;10.854;2022-12-07T08:10:23;98246.22;;;0.97;100.00
65897;BME280;52677;50.898;10.854;2022-12-07T08:12:23;98242.03;;;0.99;100.00
65897;BME280;52677;50.898;10.854;2022-12-07T08:14:24;98252.31;;;1.02;100.00
65897;BME280;52677;50.898;10.854;2022-12-07T08:16:24;98251.50;;;1.02;100.00
65897;BME280;52677;50.898;10.854;2022-12-07T08:18:25;98245.09;;;1.06;100.00
65897;BME280;52677;50.898;10.854;2022-12-07T08:20:25;98257.28;;;1.09;100.00
65897;BME280;52677;50.898;10.854;2022-12-07T08:22:25;98260.81;;;1.18;100.00
65897;BME280;52677;50.898;10.854;2022-12-07T08:24:26;98260.34;;;1.16;100.00
65897;BME280;52677;50.898;10.854;2022-12-07T08:26:26;98262.56;;;1.14;100.00
65897;BME280;52677;50.898;10.854;2022-12-07T08:28:28;98264.00;;;1.20;100.00
65897;BME280;52677;50.898;10.854;2022-12-07T08:30:29;98266.72;;;1.20;100.00
65897;BME280;52677;50.898;10.854;2022-12-07T08:32:29;98263.06;;;1.16;100.00
65897;BME280;52677;50.898;10.854;2022-12-07T08:34:30;98272.03;;;1.17;100.00
65897;BME280;52677;50.898;10.854;2022-12-07T08:36:30;98264.34;;;1.19;100.00
65897;BME280;52677;50.898;10.854;2022-12-07T08:38:31;98269.13;;;1.22;100.00
65897;BME280;52677;50.898;10.854;2022-12-07T08:40:31;98268.00;;;1.23;100.00
65897;BME280;52677;50.898;10.854;2022-12-07T08:42:32;98270.44;;;1.24;100.00
65897;BME280;52677;50.898;10.854;2022-12-07T08:44:37;98269.75;;;1.36;100.00
65897;BME280;52677;50.898;10.854;2022-12-07T08:46:51;98270.41;;;1.42;100.00
65897;BME280;52677;50.898;10.854;2022-12-07T08:49:01;98269.09;;;1.48;100.00
65897;BME280;52677;50.898;10.854;2022-12-07T08:51:02;98275.53;;;1.52;100.00
65897;BME280;52677;50.898;10.854;2022-12-07T08:53:03;98260.91;;;1.56;100.00
65897;BME280;52677;50.898;10.854;2022-12-07T08:55:05;98265.56;;;1.56;100.00
65897;BME280;52677;50.898;10.854;2022-12-07T08:57:06;98267.78;;;1.62;100.00
65897;BME280;52677;50.898;10.854;2022-12-07T08:59:08;98271.50;;;1.66;100.00
65897;BME280;52677;50.898;10.854;2022-12-07T09:01:09;98271.97;;;1.68;100.00
65897;BME280;52677;50.898;10.854;2022-12-07T09:03:09;98277.22;;;1.82;100.00
65897;BME280;52677;50.898;10.854;2022-12-07T09:05:10;98274.47;;;1.91;100.00
65897;BME280;52677;50.898;10.854;2022-12-07T09:07:10;98271.41;;;1.92;100.00
65897;BME280;52677;50.898;10.854;2022-12-07T09:09:11;98268.97;;;2.00;100.00
65897;BME280;52677;50.898;10.854;2022-12-07T09:11:12;98282.63;;;2.00;100.00
65897;BME280;52677;50.898;10.854;2022-12-07T09:13:13;98275.41;;;1.95;100.00
65897;BME280;52677;50.898;10.854;2022-12-07T09:15:13;98279.59;;;1.92;100.00
65897;BME280;52677;50.898;10.854;2022-12-07T09:17:14;98278.59;;;1.97;100.00
65897;BME280;52677;50.898;10.854;2022-12-07T09:19:14;98286.47;;;1.98;100.00
65897;BME280;52677;50.898;10.854;2022-12-07T09:21:15;98277.81;;;1.96;100.00
65897;BME280;52677;50.898;10.854;2022-12-07T09:23:15;98274.44;;;2.00;100.00
65897;BME280;52677;50.898;10.854;2022-12-07T09:25:15;98276.03;;;2.01;100.00
65897;BME280;52677;50.898;10.854;2022-12-07T09:27:16;98292.38;;;2.09;100.00
65897;BME280;52677;50.898;10.854;2022-12-07T09:29:17;98297.19;;;2.12;100.00
65897;BME280;52677;50.898;10.854;2022-12-07T09:31:18;98267.78;;;2.18;100.00
65897;BME280;52677;50.898;10.854;2022-12-07T09:33:18;98280.75;;;2.21;100.00
65897;BME280;52677;50.898;10.854;2022-12-07T09:35:18;98275.59;;;2.28;100.00
65897;BME280;52677;50.898;10.854;2022-12-07T09:37:19;98267.41;;;2.28;100.00
65897;BME280;52677;50.898;10.854;2022-12-07T09:39:19;98274.47;;;2.29;100.00
65897;BME280;52677;50.898;10.854;2022-12-07T09:41:21;98267.88;;;2.30;100.00
65897;BME280;52677;50.898;10.854;2022-12-07T09:43:23;98269.47;;;2.31;100.00
65897;BME280;52677;50.898;10.854;2022-12-07T09:45:34;98272.34;;;2.35;100.00
65897;BME280;52677;50.898;10.854;2022-12-07T09:47:35;98273.97;;;2.36;100.00
65897;BME280;52677;50.898;10.854;2022-12-07T09:49:36;98270.09;;;2.37;100.00
65897;BME280;52677;50.898;10.854;2022-12-07T09:51:36;98265.44;;;2.37;100.00
65897;BME280;52677;50.898;10.854;2022-12-07T09:53:37;98259.50;;;2.35;100.00
65897;BME280;52677;50.898;10.854;2022-12-07T09:55:40;98247.44;;;2.36;100.00
65897;BME280;52677;50.898;10.854;2022-12-07T09:57:42;98248.72;;;2.39;100.00
65897;BME280;52677;50.898;10.854;2022-12-07T09:59:43;98248.75;;;2.30;100.00
65897;BME280;52677;50.898;10.854;2022-12-07T10:01:47;98245.09;;;2.26;100.00
65897;BME280;52677;50.898;10.854;2022-12-07T10:03:50;98230.66;;;2.25;100.00
65897;BME280;52677;50.898;10.854;2022-12-07T10:05:52;98226.31;;;2.24;100.00
65897;BME280;52677;50.898;10.854;2022-12-07T10:07:53;98237.72;;;2.27;100.00
65897;BME280;52677;50.898;10.854;2022-12-07T10:09:53;98235.31;;;2.25;100.00
65897;BME280;52677;50.898;10.854;2022-12-07T10:12:07;98238.19;;;2.29;100.00
65897;BME280;52677;50.898;10.854;2022-12-07T10:14:13;98235.09;;;2.30;100.00
65897;BME280;52677;50.898;10.854;2022-12-07T10:20:36;98237.31;;;2.66;100.00
65897;BME280;52677;50.898;10.854;2022-12-07T10:22:36;98234.53;;;2.75;100.00
65897;BME280;52677;50.898;10.854;2022-12-07T10:24:38;98240.91;;;2.79;100.00
65897;BME280;52677;50.898;10.854;2022-12-07T10:28:47;98226.78;;;2.77;100.00
65897;BME280;52677;50.898;10.854;2022-12-07T10:30:59;98233.50;;;2.79;100.00
65897;BME280;52677;50.898;10.854;2022-12-07T10:33:02;98238.50;;;2.77;100.00
65897;BME280;52677;50.898;10.854;2022-12-07T10:35:27;98231.66;;;2.71;100.00
65897;BME280;52677;50.898;10.854;2022-12-07T10:37:28;98230.09;;;2.62;100.00
65897;BME280;52677;50.898;10.854;2022-12-07T10:39:28;98233.69;;;2.53;100.00
65897;BME280;52677;50.898;10.854;2022-12-07T10:41:29;98236.31;;;2.50;100.00
65897;BME280;52677;50.898;10.854;2022-12-07T10:43:29;98241.09;;;2.53;100.00
65897;BME280;52677;50.898;10.854;2022-12-07T10:45:30;98230.34;;;2.48;100.00
65897;BME280;52677;50.898;10.854;2022-12-07T10:47:36;98244.97;;;2.52;100.00
65897;BME280;52677;50.898;10.854;2022-12-07T10:54:48;98246.28;;;2.46;100.00
65897;BME280;52677;50.898;10.854;2022-12-07T11:01:25;98231.78;;;2.24;100.00
65897;BME280;52677;50.898;10.854;2022-12-07T11:04:33;98230.19;;;2.23;100.00
65897;BME280;52677;50.898;10.854;2022-12-07T11:10:19;98223.44;;;2.50;100.00
65897;BME280;52677;50.898;10.854;2022-12-07T11:12:37;98226.91;;;2.60;100.00
65897;BME280;52677;50.898;10.854;2022-12-07T11:14:44;98233.31;;;2.64;100.00
65897;BME280;52677;50.898;10.854;2022-12-07T11:24:09;98229.13;;;2.66;100.00
65897;BME280;52677;50.898;10.854;2022-12-07T11:36:57;98222.19;;;2.69;100.00
65897;BME280;52677;50.898;10.854;2022-12-07T11:39:15;98214.97;;;2.64;100.00
65897;BME280;52677;50.898;10.854;2022-12-07T11:41:24;98211.78;;;2.62;100.00
65897;BME280;52677;50.898;10.854;2022-12-07T11:43:31;98215.78;;;2.65;100.00